Time;durP1;ratioP1;P1;durP2;ratioP2;P2;SDS_P1;SDS_P2;PMS_P1;PMS_P2;Temp;Humidity;BMP_temperature;BMP_pressure;BME280_temperature;BME280_humidity;BME280_pressure;Samples;Min_cycle;Max_cycle;Signal;HPM_P1;HPM_P2
2021/12/28 00:02:11;;;;;;;2.80;1.90;;;;;;;;;;5023883;28;20044;-34
2021/12/28 00:04:37;;;;;;;2.70;1.70;;;;;;;;;;5023978;28;20418;-31
2021/12/28 00:07:03;;;;;;;3.05;2.00;;;;;;;;;;5023820;28;20029;-35
2021/12/28 00:09:28;;;;;;;2.47;1.80;;;;;;;;;;5024028;28;20033;-33
2021/12/28 00:11:54;;;;;;;2.00;1.60;;;;;;;;;;5023963;28;20099;-31
2021/12/28 00:14:22;;;;;;;3.10;1.80;;;;;;;;;;5024356;28;20037;-29
2021/12/28 00:19:32;;;;;;;2.10;1.60;;;;;;;;;;5023966;28;20534;-31
2021/12/28 00:22:22;;;;;;;3.47;1.90;;;;;;;;;;5024047;28;20029;-36
2021/12/28 00:24:48;;;;;;;3.35;1.77;;;;;;;;;;5023916;28;20060;-34
2021/12/28 00:27:13;;;;;;;2.10;1.65;;;;;;;;;;5023446;28;20037;-33
2021/12/28 00:29:39;;;;;;;1.75;1.40;;;;;;;;;;5023478;28;20026;-31
2021/12/28 00:32:05;;;;;;;2.17;1.70;;;;;;;;;;5021999;28;20021;-33
2021/12/28 00:34:31;;;;;;;3.17;1.70;;;;;;;;;;5023141;28;20083;-33
2021/12/28 00:36:57;;;;;;;2.05;1.65;;;;;;;;;;5023462;28;20033;-32
2021/12/28 00:39:22;;;;;;;1.95;1.50;;;;;;;;;;5023200;28;20028;-32
2021/12/28 00:41:48;;;;;;;2.17;1.58;;;;;;;;;;5023160;28;20118;-32
2021/12/28 00:44:14;;;;;;;2.38;1.80;;;;;;;;;;5023496;28;20029;-32
2021/12/28 00:46:40;;;;;;;2.13;1.52;;;;;;;;;;5023174;28;20574;-31
2021/12/28 00:49:05;;;;;;;1.90;1.65;;;;;;;;;;5023405;28;20029;-34
2021/12/28 00:51:31;;;;;;;2.42;1.70;;;;;;;;;;5023445;28;20521;-36
2021/12/28 00:53:56;;;;;;;3.03;1.70;;;;;;;;;;5037292;28;20025;-30
2021/12/28 00:56:22;;;;;;;2.50;1.65;;;;;;;;;;5040924;28;20060;-34
2021/12/28 00:58:48;;;;;;;2.40;1.95;;;;;;;;;;5023182;28;20026;-37
2021/12/28 01:01:13;;;;;;;2.22;1.60;;;;;;;;;;5023092;28;20022;-34
2021/12/28 01:03:39;;;;;;;2.08;1.42;;;;;;;;;;5023191;28;20075;-29
2021/12/28 01:06:05;;;;;;;2.47;1.60;;;;;;;;;;5022793;28;20487;-31
2021/12/28 01:08:31;;;;;;;2.22;1.60;;;;;;;;;;5022817;28;20053;-29
2021/12/28 01:10:57;;;;;;;2.63;1.83;;;;;;;;;;5023001;28;20025;-30
2021/12/28 01:13:23;;;;;;;2.22;1.50;;;;;;;;;;5022725;28;20037;-33
2021/12/28 01:15:49;;;;;;;3.00;1.77;;;;;;;;;;5022859;28;20095;-32
2021/12/28 01:18:14;;;;;;;2.53;1.42;;;;;;;;;;5022590;28;20045;-31
2021/12/28 01:20:43;;;;;;;1.67;1.55;;;;;;;;;;5022529;28;20033;-31
2021/12/28 01:23:09;;;;;;;2.58;1.60;;;;;;;;;;5022752;28;20033;-36
2021/12/28 01:25:34;;;;;;;2.15;1.77;;;;;;;;;;5022809;28;20025;-35
2021/12/28 01:28:00;;;;;;;1.40;1.20;;;;;;;;;;5022680;28;20121;-32
2021/12/28 01:30:26;;;;;;;2.08;1.50;;;;;;;;;;5022784;28;20095;-34
2021/12/28 01:32:52;;;;;;;2.33;1.60;;;;;;;;;;5021637;28;20065;-31
2021/12/28 01:35:18;;;;;;;2.50;1.90;;;;;;;;;;5024740;28;20478;-36
2021/12/28 01:37:43;;;;;;;1.92;1.60;;;;;;;;;;5026482;28;20029;-30
2021/12/28 01:40:11;;;;;;;2.15;1.65;;;;;;;;;;5027188;28;20132;-32
2021/12/28 01:42:56;;;;;;;2.10;1.75;;;;;;;;;;5026662;28;20025;-31
2021/12/28 01:45:36;;;;;;;2.70;1.70;;;;;;;;;;5027054;28;20950;-34
2021/12/28 01:48:02;;;;;;;2.75;1.90;;;;;;;;;;5029251;28;20118;-33
2021/12/28 01:50:27;;;;;;;2.00;1.60;;;;;;;;;;5046257;28;20546;-32
2021/12/28 01:52:53;;;;;;;1.83;1.48;;;;;;;;;;5040347;28;20032;-31
2021/12/28 01:55:18;;;;;;;2.25;1.80;;;;;;;;;;5026751;28;20029;-30
2021/12/28 01:57:44;;;;;;;2.17;1.33;;;;;;;;;;5026499;28;20057;-30
2021/12/28 02:00:10;;;;;;;1.80;1.58;;;;;;;;;;5026633;28;20809;-32
2021/12/28 02:02:36;;;;;;;2.40;1.60;;;;;;;;;;5026479;28;20036;-32
2021/12/28 02:05:01;;;;;;;1.50;1.40;;;;;;;;;;5026213;28;20037;-31
2021/12/28 02:07:27;;;;;;;1.83;1.60;;;;;;;;;;5026219;28;20053;-28
2021/12/28 02:09:53;;;;;;;1.70;1.35;;;;;;;;;;5026486;28;20530;-34
2021/12/28 02:12:18;;;;;;;2.78;1.63;;;;;;;;;;5026437;28;20053;-29
2021/12/28 02:14:44;;;;;;;1.65;1.40;;;;;;;;;;5026397;28;20049;-29
2021/12/28 02:17:10;;;;;;;2.30;1.55;;;;;;;;;;5026158;28;20021;-35
2021/12/28 02:19:36;;;;;;;1.73;1.40;;;;;;;;;;5026050;28;20044;-31
2021/12/28 02:22:02;;;;;;;2.30;1.60;;;;;;;;;;5025729;28;20522;-30
2021/12/28 02:24:27;;;;;;;2.03;1.55;;;;;;;;;;5025856;28;20040;-29
2021/12/28 02:26:53;;;;;;;2.05;1.50;;;;;;;;;;5026101;28;20029;-32
2021/12/28 02:29:19;;;;;;;1.67;1.40;;;;;;;;;;5025922;28;20464;-33
2021/12/28 02:31:45;;;;;;;1.30;1.20;;;;;;;;;;5025529;28;20040;-34
2021/12/28 02:34:10;;;;;;;2.75;1.70;;;;;;;;;;5026039;28;20034;-32
2021/12/28 02:36:36;;;;;;;1.98;1.27;;;;;;;;;;5007659;28;20030;-32
2021/12/28 02:39:01;;;;;;;2.15;1.45;;;;;;;;;;5025794;28;20036;-31
2021/12/28 02:41:27;;;;;;;2.15;1.48;;;;;;;;;;5039188;28;20613;-34
2021/12/28 02:43:58;;;;;;;1.55;1.38;;;;;;;;;;5045752;28;20075;-31
2021/12/28 02:46:24;;;;;;;1.63;1.35;;;;;;;;;;5044023;28;20120;-28
2021/12/28 02:48:49;;;;;;;1.45;1.33;;;;;;;;;;5045594;28;20111;-31
2021/12/28 02:51:15;;;;;;;1.52;1.23;;;;;;;;;;5045549;28;20528;-31
2021/12/28 02:53:41;;;;;;;1.65;1.35;;;;;;;;;;5032368;28;20048;-30
2021/12/28 02:56:08;;;;;;;2.40;1.30;;;;;;;;;;5025656;28;20309;-30
2021/12/28 02:58:34;;;;;;;1.58;1.20;;;;;;;;;;5025049;28;20030;-28
2021/12/28 03:01:13;;;;;;;1.83;1.30;;;;;;;;;;5025357;28;20037;-31
2021/12/28 03:03:40;;;;;;;1.98;1.38;;;;;;;;;;5025186;28;20051;-30
2021/12/28 03:06:06;;;;;;;1.40;1.25;;;;;;;;;;5025119;28;20047;-32
2021/12/28 03:08:32;;;;;;;1.80;1.38;;;;;;;;;;5024706;28;20581;-35
2021/12/28 03:10:59;;;;;;;1.55;1.30;;;;;;;;;;5025191;28;20068;-36
2021/12/28 03:13:28;;;;;;;2.00;1.40;;;;;;;;;;5025582;28;20029;-35
2021/12/28 03:15:54;;;;;;;1.40;1.10;;;;;;;;;;5025154;28;20037;-32
2021/12/28 03:18:20;;;;;;;2.08;1.45;;;;;;;;;;5025059;28;20036;-29
2021/12/28 03:20:46;;;;;;;1.23;1.00;;;;;;;;;;5025141;28;20053;-34
2021/12/28 03:23:16;;;;;;;1.27;1.08;;;;;;;;;;5039935;28;20152;-32
2021/12/28 03:25:41;;;;;;;1.52;1.02;;;;;;;;;;5024886;28;20044;-29
2021/12/28 03:28:07;;;;;;;1.08;0.85;;;;;;;;;;5024839;28;20033;-30
2021/12/28 03:30:32;;;;;;;2.20;1.38;;;;;;;;;;5024863;28;20391;-37
2021/12/28 03:32:58;;;;;;;1.45;1.10;;;;;;;;;;5024837;28;20025;-34
2021/12/28 03:35:24;;;;;;;1.60;1.08;;;;;;;;;;5023138;28;20033;-30
2021/12/28 03:37:49;;;;;;;1.85;1.38;;;;;;;;;;5024356;28;20132;-31
2021/12/28 03:40:15;;;;;;;1.92;1.27;;;;;;;;;;5024711;28;20073;-28
2021/12/28 03:42:41;;;;;;;1.70;1.17;;;;;;;;;;5024403;28;20049;-33
2021/12/28 03:45:07;;;;;;;1.60;1.23;;;;;;;;;;5024515;28;20411;-31
2021/12/28 03:47:33;;;;;;;1.73;1.23;;;;;;;;;;5024342;28;20161;-29
2021/12/28 03:49:58;;;;;;;2.13;1.40;;;;;;;;;;5024198;28;20526;-34
2021/12/28 03:52:24;;;;;;;1.83;1.17;;;;;;;;;;5024928;28;20041;-31
2021/12/28 03:54:49;;;;;;;1.63;1.27;;;;;;;;;;5024335;28;20033;-30
2021/12/28 03:57:15;;;;;;;2.67;1.42;;;;;;;;;;5024606;28;20446;-31
2021/12/28 03:59:40;;;;;;;1.30;1.10;;;;;;;;;;5024153;28;20414;-33
2021/12/28 04:02:06;;;;;;;1.75;1.30;;;;;;;;;;5024001;28;20030;-32
2021/12/28 04:04:31;;;;;;;1.50;1.05;;;;;;;;;;5024349;28;20030;-33
2021/12/28 04:06:57;;;;;;;1.38;1.00;;;;;;;;;;5023711;28;20511;-31
2021/12/28 04:09:45;;;;;;;1.60;1.20;;;;;;;;;;5024169;28;20087;-32
2021/12/28 04:12:08;;;;;;;1.58;1.02;;;;;;;;;;5024066;28;20034;-33
2021/12/28 04:14:34;;;;;;;1.38;1.17;;;;;;;;;;5024222;28;20026;-34
2021/12/28 04:16:59;;;;;;;2.47;1.25;;;;;;;;;;5023865;28;20107;-32
2021/12/28 04:19:25;;;;;;;1.42;1.00;;;;;;;;;;5023736;28;20033;-30
2021/12/28 04:21:50;;;;;;;2.00;1.10;;;;;;;;;;5023804;28;20046;-30
2021/12/28 04:24:16;;;;;;;1.48;1.20;;;;;;;;;;5023854;28;20025;-31
2021/12/28 04:26:41;;;;;;;1.40;1.30;;;;;;;;;;5023631;28;20041;-36
2021/12/28 04:29:07;;;;;;;1.10;0.90;;;;;;;;;;5023842;28;20510;-33
2021/12/28 04:31:33;;;;;;;1.10;0.98;;;;;;;;;;5028661;28;20031;-34
2021/12/28 04:33:58;;;;;;;1.40;1.10;;;;;;;;;;5043325;28;20025;-31
2021/12/28 04:36:24;;;;;;;1.27;1.08;;;;;;;;;;5043963;28;20037;-30
2021/12/28 04:38:49;;;;;;;1.42;1.00;;;;;;;;;;5043546;28;20056;-32
2021/12/28 04:41:15;;;;;;;1.70;1.30;;;;;;;;;;5043451;28;20091;-35
2021/12/28 04:43:41;;;;;;;1.10;1.00;;;;;;;;;;5043120;28;20033;-35
2021/12/28 04:46:06;;;;;;;1.77;1.05;;;;;;;;;;5043316;28;20029;-32
2021/12/28 04:48:32;;;;;;;1.25;1.02;;;;;;;;;;5043235;28;20601;-35
2021/12/28 04:50:58;;;;;;;1.25;1.00;;;;;;;;;;5043117;28;20495;-33
2021/12/28 04:53:24;;;;;;;1.88;1.27;;;;;;;;;;5042637;28;20029;-34
2021/12/28 04:55:49;;;;;;;1.30;1.15;;;;;;;;;;5042890;28;20372;-30
2021/12/28 04:58:15;;;;;;;1.40;1.00;;;;;;;;;;5043324;28;20032;-31
2021/12/28 05:00:41;;;;;;;1.20;0.98;;;;;;;;;;5043336;28;20032;-32
2021/12/28 05:03:07;;;;;;;1.23;1.10;;;;;;;;;;5042848;28;20934;-31
2021/12/28 05:05:33;;;;;;;1.15;0.90;;;;;;;;;;5043022;28;20025;-31
2021/12/28 05:07:58;;;;;;;1.83;1.20;;;;;;;;;;5042759;28;20041;-33
2021/12/28 05:10:24;;;;;;;0.90;0.80;;;;;;;;;;5042649;28;20588;-30
2021/12/28 05:12:50;;;;;;;3.00;1.27;;;;;;;;;;5043105;28;20551;-33
2021/12/28 05:15:16;;;;;;;0.85;0.75;;;;;;;;;;5042926;28;20068;-31
2021/12/28 05:17:41;;;;;;;1.10;0.88;;;;;;;;;;5041322;28;20052;-30
2021/12/28 05:20:07;;;;;;;1.15;1.00;;;;;;;;;;5042839;28;20802;-36
2021/12/28 05:22:33;;;;;;;1.50;1.23;;;;;;;;;;5036852;28;20033;-32
2021/12/28 05:24:58;;;;;;;1.88;1.10;;;;;;;;;;5022873;28;20204;-32
2021/12/28 05:27:24;;;;;;;1.58;1.23;;;;;;;;;;5022955;28;20037;-31
2021/12/28 05:29:49;;;;;;;1.73;1.27;;;;;;;;;;5023052;28;20566;-32
2021/12/28 05:32:15;;;;;;;1.63;1.10;;;;;;;;;;5023092;28;20701;-30
2021/12/28 05:34:41;;;;;;;1.10;1.00;;;;;;;;;;5021082;28;20200;-33
2021/12/28 05:37:07;;;;;;;1.30;1.15;;;;;;;;;;5022837;28;20414;-30
2021/12/28 05:39:32;;;;;;;1.15;0.90;;;;;;;;;;5022636;28;20041;-37
2021/12/28 05:41:58;;;;;;;1.52;1.10;;;;;;;;;;5022704;28;20241;-33
2021/12/28 05:44:24;;;;;;;1.38;1.00;;;;;;;;;;5021949;28;20442;-34
2021/12/28 05:46:49;;;;;;;1.00;0.90;;;;;;;;;;5033353;28;20541;-32
2021/12/28 05:49:15;;;;;;;1.27;1.02;;;;;;;;;;5042568;28;20063;-32
2021/12/28 05:51:40;;;;;;;1.20;1.00;;;;;;;;;;5042326;28;20040;-32
2021/12/28 05:54:06;;;;;;;1.42;1.00;;;;;;;;;;5024030;28;20038;-35
2021/12/28 05:56:31;;;;;;;1.35;1.10;;;;;;;;;;5023137;28;20060;-32
2021/12/28 05:58:57;;;;;;;3.40;1.30;;;;;;;;;;5022551;28;20799;-35
2021/12/28 06:01:22;;;;;;;1.17;1.00;;;;;;;;;;5022749;28;20033;-32
2021/12/28 06:03:48;;;;;;;1.38;1.10;;;;;;;;;;5022572;28;20061;-32
2021/12/28 06:06:13;;;;;;;1.42;1.15;;;;;;;;;;5023030;28;20376;-32
2021/12/28 06:08:39;;;;;;;1.48;1.08;;;;;;;;;;5022399;28;20840;-31
2021/12/28 06:11:06;;;;;;;1.17;0.90;;;;;;;;;;5022574;28;20034;-31
2021/12/28 06:13:32;;;;;;;1.35;0.95;;;;;;;;;;5022879;28;20452;-32
2021/12/28 06:15:58;;;;;;;1.25;1.05;;;;;;;;;;5022271;28;20593;-30
2021/12/28 06:18:23;;;;;;;1.38;1.15;;;;;;;;;;5022495;28;20517;-36
2021/12/28 06:20:49;;;;;;;1.50;1.05;;;;;;;;;;5023654;28;20064;-33
2021/12/28 06:23:14;;;;;;;1.00;0.90;;;;;;;;;;5026159;28;20423;-33
2021/12/28 06:25:40;;;;;;;1.25;0.90;;;;;;;;;;5026080;28;20138;-31
2021/12/28 06:28:05;;;;;;;1.65;1.13;;;;;;;;;;5025931;28;20030;-36
2021/12/28 06:30:31;;;;;;;0.93;0.80;;;;;;;;;;5026066;28;20030;-34
2021/12/28 06:32:57;;;;;;;1.35;0.93;;;;;;;;;;5025809;28;20040;-30
2021/12/28 06:35:22;;;;;;;1.33;1.08;;;;;;;;;;5026065;28;20033;-32
2021/12/28 06:37:48;;;;;;;0.90;0.70;;;;;;;;;;5025711;28;20026;-33
2021/12/28 06:40:13;;;;;;;1.00;0.82;;;;;;;;;;5026157;28;20124;-34
2021/12/28 06:42:39;;;;;;;1.40;1.00;;;;;;;;;;5025751;28;20295;-37
2021/12/28 06:45:05;;;;;;;1.42;1.10;;;;;;;;;;5026049;28;20091;-30
2021/12/28 06:47:31;;;;;;;0.98;0.77;;;;;;;;;;5025680;28;20037;-35
2021/12/28 06:49:56;;;;;;;1.00;0.80;;;;;;;;;;5025345;28;20037;-32
2021/12/28 06:52:22;;;;;;;1.10;0.90;;;;;;;;;;5026560;28;20033;-29
2021/12/28 06:54:47;;;;;;;1.00;0.88;;;;;;;;;;5025603;28;20531;-34
2021/12/28 06:57:13;;;;;;;1.10;0.90;;;;;;;;;;5025719;28;20033;-33
2021/12/28 06:59:43;;;;;;;0.93;0.80;;;;;;;;;;5025171;28;20514;-30
2021/12/28 07:02:10;;;;;;;1.48;1.00;;;;;;;;;;5025452;28;20040;-32
2021/12/28 07:04:35;;;;;;;1.05;0.88;;;;;;;;;;5025390;28;20067;-34
2021/12/28 07:07:01;;;;;;;1.15;0.90;;;;;;;;;;5025490;28;20041;-31
2021/12/28 07:09:26;;;;;;;1.90;1.10;;;;;;;;;;5025280;28;20503;-34
2021/12/28 07:11:52;;;;;;;1.70;0.95;;;;;;;;;;5024979;28;20084;-33
2021/12/28 07:14:18;;;;;;;1.33;1.13;;;;;;;;;;5025396;28;20026;-33
2021/12/28 07:16:43;;;;;;;1.05;0.70;;;;;;;;;;5024901;28;20091;-39
2021/12/28 07:19:10;;;;;;;1.08;0.88;;;;;;;;;;5025600;28;20029;-33
2021/12/28 07:21:39;;;;;;;1.23;1.10;;;;;;;;;;5025353;28;20107;-34
2021/12/28 07:24:05;;;;;;;1.23;1.00;;;;;;;;;;5025086;28;20033;-32
2021/12/28 07:26:31;;;;;;;1.25;0.73;;;;;;;;;;5025086;28;20035;-32
2021/12/28 07:28:57;;;;;;;0.80;0.80;;;;;;;;;;5025021;28;20029;-31
2021/12/28 07:31:22;;;;;;;1.33;0.95;;;;;;;;;;5024945;28;20104;-36
2021/12/28 07:33:48;;;;;;;1.10;0.80;;;;;;;;;;5023900;28;20052;-36
2021/12/28 07:36:13;;;;;;;1.45;1.02;;;;;;;;;;5025116;28;20025;-35
2021/12/28 07:38:39;;;;;;;1.27;0.80;;;;;;;;;;5025013;28;20926;-32
2021/12/28 07:41:04;;;;;;;2.50;1.10;;;;;;;;;;5025036;28;20060;-32
2021/12/28 07:43:30;;;;;;;1.25;1.10;;;;;;;;;;5024736;28;20021;-33
2021/12/28 07:45:55;;;;;;;1.02;0.82;;;;;;;;;;5024833;28;20029;-28
2021/12/28 07:48:21;;;;;;;1.98;1.10;;;;;;;;;;5024664;28;20025;-34
2021/12/28 07:50:46;;;;;;;1.23;1.08;;;;;;;;;;5025051;28;20026;-34
2021/12/28 07:53:12;;;;;;;1.42;0.85;;;;;;;;;;5024800;28;20033;-33
2021/12/28 07:55:37;;;;;;;1.58;1.17;;;;;;;;;;5024382;28;20068;-35
2021/12/28 07:58:03;;;;;;;1.10;0.80;;;;;;;;;;5041419;28;20025;-35
2021/12/28 08:00:28;;;;;;;1.30;0.93;;;;;;;;;;5044600;28;20025;-36
2021/12/28 08:02:54;;;;;;;2.08;1.27;;;;;;;;;;5044115;28;20024;-33
2021/12/28 08:05:20;;;;;;;1.10;0.85;;;;;;;;;;5044014;28;20121;-32
2021/12/28 08:07:45;;;;;;;1.00;0.90;;;;;;;;;;5043462;28;20086;-34
2021/12/28 08:10:11;;;;;;;1.95;1.50;;;;;;;;;;5044273;28;20114;-30
2021/12/28 08:12:37;;;;;;;1.20;0.95;;;;;;;;;;5044069;28;20027;-33
2021/12/28 08:15:03;;;;;;;1.40;1.15;;;;;;;;;;5043707;28;20024;-30
2021/12/28 08:17:30;;;;;;;1.13;1.00;;;;;;;;;;5037379;28;20040;-30
2021/12/28 08:19:56;;;;;;;1.20;1.02;;;;;;;;;;5024095;28;20119;-30
2021/12/28 08:22:21;;;;;;;1.45;1.05;;;;;;;;;;5024461;28;20096;-31
2021/12/28 08:24:46;;;;;;;1.27;1.08;;;;;;;;;;5023969;28;20476;-33
2021/12/28 08:27:12;;;;;;;2.00;1.30;;;;;;;;;;5024183;28;20039;-32
2021/12/28 08:29:38;;;;;;;1.73;1.30;;;;;;;;;;5024112;28;20538;-31
2021/12/28 08:32:04;;;;;;;1.63;1.40;;;;;;;;;;5023729;28;20029;-35
2021/12/28 08:34:29;;;;;;;1.23;0.90;;;;;;;;;;5023977;28;20053;-34
2021/12/28 08:36:55;;;;;;;1.45;1.13;;;;;;;;;;5023675;28;20025;-35
2021/12/28 08:39:20;;;;;;;1.77;1.20;;;;;;;;;;5023637;28;20120;-31
2021/12/28 08:41:46;;;;;;;1.40;1.20;;;;;;;;;;5023480;28;20040;-32
2021/12/28 08:44:11;;;;;;;2.10;1.55;;;;;;;;;;5024013;28;20483;-35
2021/12/28 08:46:39;;;;;;;1.35;1.25;;;;;;;;;;5023369;28;20041;-33
2021/12/28 08:49:05;;;;;;;2.15;1.40;;;;;;;;;;5023405;28;20025;-32
2021/12/28 08:51:31;;;;;;;1.60;1.38;;;;;;;;;;5024016;28;20037;-31
2021/12/28 08:53:57;;;;;;;1.75;1.25;;;;;;;;;;5023358;28;20557;-30
2021/12/28 08:56:22;;;;;;;1.73;1.35;;;;;;;;;;5023767;28;20030;-32
2021/12/28 08:58:48;;;;;;;1.48;1.17;;;;;;;;;;5023638;28;20033;-30
2021/12/28 09:01:14;;;;;;;1.60;1.42;;;;;;;;;;5033595;28;20407;-31
2021/12/28 09:03:39;;;;;;;1.70;1.45;;;;;;;;;;5042881;28;20497;-34
2021/12/28 09:06:05;;;;;;;1.58;1.27;;;;;;;;;;5043153;28;20040;-31
2021/12/28 09:08:31;;;;;;;1.40;1.23;;;;;;;;;;5042997;28;20045;-35
2021/12/28 09:10:57;;;;;;;2.20;1.63;;;;;;;;;;5043112;28;20040;-32
2021/12/28 09:13:22;;;;;;;1.40;1.30;;;;;;;;;;5043100;28;20033;-32
2021/12/28 09:15:48;;;;;;;2.17;1.55;;;;;;;;;;5043268;28;20033;-31
2021/12/28 09:18:14;;;;;;;2.15;1.67;;;;;;;;;;5042842;28;20040;-32
2021/12/28 09:20:39;;;;;;;1.60;1.50;;;;;;;;;;5042929;28;20087;-29
2021/12/28 09:23:06;;;;;;;2.13;1.63;;;;;;;;;;5043141;28;20036;-34
2021/12/28 09:25:32;;;;;;;1.90;1.48;;;;;;;;;;5043180;28;20025;-30
2021/12/28 09:27:57;;;;;;;2.00;1.48;;;;;;;;;;5042732;28;20083;-35
2021/12/28 09:30:23;;;;;;;1.92;1.30;;;;;;;;;;5043104;28;20033;-29
2021/12/28 09:32:49;;;;;;;2.13;1.50;;;;;;;;;;5042574;28;20174;-35
2021/12/28 09:35:14;;;;;;;2.00;1.40;;;;;;;;;;5043002;28;20025;-29
2021/12/28 09:37:40;;;;;;;2.03;1.50;;;;;;;;;;5043045;28;20067;-28
2021/12/28 09:40:07;;;;;;;1.90;1.70;;;;;;;;;;5029483;28;20036;-33
2021/12/28 09:42:33;;;;;;;1.80;1.60;;;;;;;;;;5023065;28;20586;-31
2021/12/28 09:44:59;;;;;;;1.77;1.60;;;;;;;;;;5022823;28;20028;-32
2021/12/28 09:47:24;;;;;;;2.13;1.77;;;;;;;;;;5022900;28;20034;-34
2021/12/28 09:49:50;;;;;;;1.63;1.42;;;;;;;;;;5022609;28;20029;-34
2021/12/28 09:52:16;;;;;;;1.70;1.58;;;;;;;;;;5023670;28;20033;-31
2021/12/28 09:54:42;;;;;;;2.05;1.65;;;;;;;;;;5022524;28;20590;-31
2021/12/28 09:57:07;;;;;;;2.17;1.70;;;;;;;;;;5035809;28;20029;-30
2021/12/28 09:59:33;;;;;;;1.95;1.50;;;;;;;;;;5045190;28;20028;-32
2021/12/28 10:01:59;;;;;;;2.50;2.00;;;;;;;;;;5046368;28;20036;-32
2021/12/28 10:04:26;;;;;;;1.70;1.60;;;;;;;;;;5046391;28;20035;-30
2021/12/28 10:06:51;;;;;;;2.15;1.70;;;;;;;;;;5046299;28;20415;-30
2021/12/28 10:09:19;;;;;;;1.65;1.40;;;;;;;;;;5046339;28;20041;-34
2021/12/28 10:11:48;;;;;;;1.80;1.60;;;;;;;;;;5045873;28;20036;-32
2021/12/28 10:14:26;;;;;;;2.25;1.73;;;;;;;;;;5046067;28;20119;-33
2021/12/28 10:17:00;;;;;;;1.60;1.50;;;;;;;;;;5046455;28;20029;-30
2021/12/28 10:19:45;;;;;;;3.05;1.80;;;;;;;;;;5046401;28;20029;-31
2021/12/28 10:22:35;;;;;;;2.10;1.63;;;;;;;;;;5046136;28;20095;-32
2021/12/28 10:25:12;;;;;;;1.67;1.58;;;;;;;;;;5046431;28;20056;-30
2021/12/28 10:27:40;;;;;;;1.90;1.70;;;;;;;;;;5061513;28;20101;-30
2021/12/28 10:30:08;;;;;;;1.90;1.70;;;;;;;;;;5046279;28;20563;-30
2021/12/28 10:32:34;;;;;;;2.75;1.95;;;;;;;;;;5046305;28;20099;-32
2021/12/28 10:35:21;;;;;;;2.03;1.70;;;;;;;;;;5046267;28;20036;-33
2021/12/28 10:37:52;;;;;;;1.98;1.73;;;;;;;;;;5045386;28;20037;-32
2021/12/28 10:40:25;;;;;;;2.72;1.90;;;;;;;;;;5046092;28;20024;-34
2021/12/28 10:42:52;;;;;;;;;;;;;;;;;;5046176;28;20063;-35
2021/12/28 10:45:23;;;;;;;1.90;1.63;;;;;;;;;;5045816;28;19916;-32
2021/12/28 10:47:49;;;;;;;2.15;1.63;;;;;;;;;;5045601;28;20033;-33
2021/12/28 10:50:28;;;;;;;2.22;1.90;;;;;;;;;;5045828;28;20325;-32
2021/12/28 10:53:06;;;;;;;2.30;1.85;;;;;;;;;;5044905;28;20661;-32
2021/12/28 10:55:32;;;;;;;2.47;1.83;;;;;;;;;;5026586;28;20104;-30
2021/12/28 10:57:57;;;;;;;2.38;1.90;;;;;;;;;;5025598;28;20518;-31
2021/12/28 11:00:41;;;;;;;2.63;1.92;;;;;;;;;;5025874;28;20061;-37
2021/12/28 11:03:17;;;;;;;2.22;1.90;;;;;;;;;;5025603;28;20033;-31
2021/12/28 11:05:45;;;;;;;2.75;2.13;;;;;;;;;;5025398;28;20526;-34
2021/12/28 11:08:10;;;;;;;1.55;1.45;;;;;;;;;;5024245;28;20128;-31
2021/12/28 11:10:43;;;;;;;1.75;1.65;;;;;;;;;;5025465;28;20022;-31
2021/12/28 11:13:11;;;;;;;1.80;1.60;;;;;;;;;;5025382;28;20073;-35
2021/12/28 11:15:38;;;;;;;2.45;2.00;;;;;;;;;;5025852;28;20187;-31
2021/12/28 11:18:20;;;;;;;2.33;1.90;;;;;;;;;;5007074;28;20065;-34
2021/12/28 11:20:46;;;;;;;2.08;1.88;;;;;;;;;;5025543;28;20072;-33
2021/12/28 11:23:13;;;;;;;2.40;2.10;;;;;;;;;;5025252;28;20394;-31
2021/12/28 11:25:39;;;;;;;2.13;1.92;;;;;;;;;;5025168;28;20029;-36
2021/12/28 11:28:14;;;;;;;2.47;1.80;;;;;;;;;;5024968;28;20041;-29
2021/12/28 11:30:40;;;;;;;2.20;1.90;;;;;;;;;;5025241;28;20472;-33
2021/12/28 11:33:07;;;;;;;2.20;2.00;;;;;;;;;;5025027;28;20152;-35
2021/12/28 11:35:33;;;;;;;2.58;2.03;;;;;;;;;;5025088;28;20022;-32
2021/12/28 11:37:59;;;;;;;2.22;1.92;;;;;;;;;;5025359;28;20314;-30
2021/12/28 11:40:24;;;;;;;2.13;1.60;;;;;;;;;;5023419;28;20026;-29
2021/12/28 11:42:50;;;;;;;2.42;1.95;;;;;;;;;;5024992;28;20048;-32
2021/12/28 11:45:15;;;;;;;2.35;1.77;;;;;;;;;;5034058;28;20415;-32
2021/12/28 11:47:42;;;;;;;3.13;1.98;;;;;;;;;;5043271;28;20029;-30
2021/12/28 11:50:09;;;;;;;2.17;1.95;;;;;;;;;;5027072;28;20029;-33
2021/12/28 11:52:35;;;;;;;2.40;1.80;;;;;;;;;;5033840;28;20127;-35
2021/12/28 11:55:01;;;;;;;2.13;1.88;;;;;;;;;;5024171;28;20026;-34
2021/12/28 11:57:27;;;;;;;2.30;2.03;;;;;;;;;;5024489;28;20041;-34
2021/12/28 11:59:58;;;;;;;2.80;1.98;;;;;;;;;;5024333;28;20032;-34
2021/12/28 12:02:45;;;;;;;2.22;1.70;;;;;;;;;;5024654;28;20036;-30
2021/12/28 12:05:13;;;;;;;2.38;1.80;;;;;;;;;;5024269;28;20021;-31
2021/12/28 12:07:39;;;;;;;2.55;2.00;;;;;;;;;;5023862;28;20127;-31
2021/12/28 12:10:10;;;;;;;2.20;1.77;;;;;;;;;;5024749;28;20029;-32
2021/12/28 12:12:50;;;;;;;1.95;1.77;;;;;;;;;;5024353;28;20069;-32
2021/12/28 12:15:17;;;;;;;2.08;1.80;;;;;;;;;;5024631;28;20052;-35
2021/12/28 12:17:45;;;;;;;2.38;2.08;;;;;;;;;;5024250;28;20033;-30
2021/12/28 12:20:20;;;;;;;2.22;1.75;;;;;;;;;;5023937;28;20043;-32
2021/12/28 12:22:45;;;;;;;1.92;1.67;;;;;;;;;;5024650;28;20041;-35
2021/12/28 12:25:13;;;;;;;2.00;1.80;;;;;;;;;;5024039;28;20450;-34
2021/12/28 12:27:55;;;;;;;2.53;1.92;;;;;;;;;;5022179;28;20093;-35
2021/12/28 12:30:21;;;;;;;2.20;2.00;;;;;;;;;;5024121;28;20083;-36
2021/12/28 12:32:55;;;;;;;2.15;1.95;;;;;;;;;;5024099;28;20033;-35
2021/12/28 12:35:38;;;;;;;2.08;1.73;;;;;;;;;;5023806;28;20036;-34
2021/12/28 12:38:27;;;;;;;2.33;2.08;;;;;;;;;;5023980;28;20037;-35
2021/12/28 12:40:59;;;;;;;1.90;1.70;;;;;;;;;;5023536;28;20061;-35
2021/12/28 12:43:39;;;;;;;2.08;1.88;;;;;;;;;;5023992;28;20025;-30
2021/12/28 12:46:10;;;;;;;2.50;2.08;;;;;;;;;;5023963;28;20033;-33
2021/12/28 12:48:35;;;;;;;2.30;2.10;;;;;;;;;;5023810;28;20051;-33
2021/12/28 12:51:22;;;;;;;2.40;2.05;;;;;;;;;;5023411;28;20553;-35
2021/12/28 12:53:58;;;;;;;2.05;1.80;;;;;;;;;;5023300;28;20048;-31
2021/12/28 12:56:43;;;;;;;2.40;2.13;;;;;;;;;;5023699;28;20068;-34
2021/12/28 12:59:14;;;;;;;2.08;1.63;;;;;;;;;;5023777;28;20041;-32
2021/12/28 13:01:39;;;;;;;2.38;1.73;;;;;;;;;;5023299;28;20025;-31
2021/12/28 13:04:24;;;;;;;2.00;1.80;;;;;;;;;;5023328;28;20041;-35
2021/12/28 13:07:05;;;;;;;2.42;1.88;;;;;;;;;;5023341;28;20033;-32
2021/12/28 13:09:35;;;;;;;2.08;1.88;;;;;;;;;;5023371;28;20049;-32
2021/12/28 13:12:02;;;;;;;2.10;1.90;;;;;;;;;;5023335;28;20714;-31
2021/12/28 13:14:28;;;;;;;2.30;2.00;;;;;;;;;;5023596;28;20108;-30
2021/12/28 13:17:17;;;;;;;2.13;1.92;;;;;;;;;;5023397;28;20045;-33
2021/12/28 13:20:06;;;;;;;2.47;1.95;;;;;;;;;;5023116;28;20462;-37
2021/12/28 13:22:36;;;;;;;2.20;2.00;;;;;;;;;;5023264;28;20038;-33
2021/12/28 13:25:01;;;;;;;2.72;2.08;;;;;;;;;;5022903;28;20507;-30
2021/12/28 13:27:27;;;;;;;2.58;2.05;;;;;;;;;;5023214;28;20025;-29
2021/12/28 13:29:53;;;;;;;2.72;2.30;;;;;;;;;;5022603;28;20021;-32
2021/12/28 13:32:34;;;;;;;1.95;1.55;;;;;;;;;;5023141;28;20562;-35
2021/12/28 13:35:09;;;;;;;3.00;2.30;;;;;;;;;;5023392;28;20037;-32
2021/12/28 13:37:40;;;;;;;2.05;1.80;;;;;;;;;;5023362;28;20030;-35
2021/12/28 13:40:23;;;;;;;2.60;2.10;;;;;;;;;;5023609;28;20095;-33
2021/12/28 13:42:52;;;;;;;;;;;;;;;;;;5023885;28;20076;-32
2021/12/28 13:45:40;;;;;;;2.60;2.17;;;;;;;;;;5023378;28;20744;-31
2021/12/28 13:48:38;;;;;;;2.15;1.80;;;;;;;;;;5023275;28;20104;-32
2021/12/28 13:51:11;;;;;;;2.40;1.83;;;;;;;;;;5021370;28;20053;-33
2021/12/28 13:53:50;;;;;;;2.30;1.98;;;;;;;;;;5042627;28;20045;-32
2021/12/28 13:56:22;;;;;;;2.30;2.10;;;;;;;;;;5042757;28;20116;-33
2021/12/28 13:58:49;;;;;;;2.22;1.90;;;;;;;;;;5042833;28;20112;-31
2021/12/28 14:01:17;;;;;;;2.33;1.80;;;;;;;;;;5043165;28;20882;-33
2021/12/28 14:03:58;;;;;;;2.35;2.05;;;;;;;;;;5042623;28;20574;-33
2021/12/28 14:06:24;;;;;;;2.00;1.80;;;;;;;;;;5042896;28;20040;-31
2021/12/28 14:08:50;;;;;;;3.20;2.22;;;;;;;;;;5042514;28;20107;-33
2021/12/28 14:11:29;;;;;;;2.58;2.00;;;;;;;;;;5043015;28;20462;-28
2021/12/28 14:13:54;;;;;;;2.50;2.00;;;;;;;;;;5042706;28;20021;-30
2021/12/28 14:16:20;;;;;;;3.05;2.17;;;;;;;;;;5042902;28;20036;-31
2021/12/28 14:18:47;;;;;;;2.90;2.28;;;;;;;;;;5042947;28;20029;-30
2021/12/28 14:21:12;;;;;;;2.70;2.20;;;;;;;;;;5042817;28;20116;-31
2021/12/28 14:23:38;;;;;;;2.78;2.20;;;;;;;;;;5042818;28;20044;-32
2021/12/28 14:26:24;;;;;;;2.05;1.65;;;;;;;;;;5042819;28;20065;-29
2021/12/28 14:29:04;;;;;;;2.90;2.10;;;;;;;;;;5042708;28;20032;-34
2021/12/28 14:31:50;;;;;;;3.33;2.45;;;;;;;;;;5030843;28;20021;-31
2021/12/28 14:34:31;;;;;;;2.70;2.03;;;;;;;;;;5022693;28;20020;-29
2021/12/28 14:37:12;;;;;;;2.42;2.22;;;;;;;;;;5022951;28;20085;-33
2021/12/28 14:39:55;;;;;;;3.08;2.35;;;;;;;;;;5023084;28;20047;-31
2021/12/28 14:42:22;;;;;;;2.85;2.30;;;;;;;;;;5024308;28;20032;-33
2021/12/28 14:44:49;;;;;;;2.70;2.10;;;;;;;;;;5026413;28;20084;-31
2021/12/28 14:47:21;;;;;;;3.10;2.53;;;;;;;;;;5029613;28;20047;-35
2021/12/28 14:49:48;;;;;;;3.05;2.17;;;;;;;;;;5046196;28;20037;-32
2021/12/28 14:52:14;;;;;;;3.08;2.30;;;;;;;;;;5034983;28;20022;-34